Darien, Wisconsin
Current Conditions -  °F | °C
As of 12:45 PM on Friday 24 Oct 2014 (Local Time) from KJVL Reporting Station
Haze Haze  
Wind Chill: 54°   Ceiling: 300
Heat Index: 54°   Visibility: 4mi
Dew Point: 52°   Wind: 8mph
Humidity: 94%   Direction: 200°SSW
Pressure: 30.01"   Gusts: NA
Location:  42.6°N, 88.71°W
Report Text: KJVL 241745Z 20007KT 4SM BR OVC003 12/11 A3001
Loading
Personal Weather Stations






























Interactive Weather Map
Tropical Storm Tracking
New forecast layout! Learn more

10-Day Weather Forecast

Advertisements
Track Severe Weather on mobile